Time;durP1;ratioP1;P1;durP2;ratioP2;P2;SDS_P1;SDS_P2;PMS_P1;PMS_P2;Temp;Humidity;BMP_temperature;BMP_pressure;BME280_temperature;BME280_humidity;BME280_pressure;Samples;Min_cycle;Max_cycle;Signal;HPM_P1;HPM_P2
2022/09/19 00:00:05;;;;;;;9.45;0.88;;;;;;;8.64;100.00;101142.13;2087728;28;31963;-78
2022/09/19 00:01:17;;;;;;;9.40;0.68;;;;;;;8.64;100.00;101145.66;2087690;28;33954;-77
2022/09/19 00:02:19;;;;;;;6.88;0.40;;;;;;;8.71;100.00;101165.16;2104426;28;20063;-86
2022/09/19 00:03:21;;;;;;;10.07;0.93;;;;;;;8.75;100.00;101159.75;2103857;28;34757;-82
2022/09/19 00:04:30;;;;;;;12.88;0.73;;;;;;;8.74;100.00;101166.03;2088086;28;20100;-80
2022/09/19 00:05:33;;;;;;;32.03;0.90;;;;;;;8.75;100.00;101173.09;2088256;28;38893;-87
2022/09/19 00:06:37;;;;;;;17.90;0.80;;;;;;;8.79;100.00;101177.53;2088060;28;35778;-84
2022/09/19 00:07:39;;;;;;;5.15;0.50;;;;;;;8.84;100.00;101179.25;2088101;28;20038;-80
2022/09/19 00:08:43;;;;;;;7.10;0.40;;;;;;;8.84;100.00;101179.25;2087987;28;34405;-87
2022/09/19 00:09:45;;;;;;;9.77;0.52;;;;;;;8.90;100.00;101168.47;2088038;28;33822;-82
2022/09/19 00:10:46;;;;;;;16.55;0.73;;;;;;;8.94;100.00;101170.25;2087807;28;20050;-81
2022/09/19 00:11:51;;;;;;;12.35;0.77;;;;;;;8.92;100.00;101166.72;2087868;28;33429;-82
2022/09/19 00:12:55;;;;;;;9.15;0.73;;;;;;;8.93;100.00;101169.31;2087747;28;37733;-78
2022/09/19 00:13:59;;;;;;;6.43;0.40;;;;;;;8.92;100.00;101161.38;2087673;28;30650;-80
2022/09/19 00:15:01;;;;;;;9.70;0.57;;;;;;;8.96;100.00;101165.75;2087258;28;34645;-78
2022/09/19 00:16:03;;;;;;;8.25;0.70;;;;;;;8.96;100.00;101168.44;2087009;28;20049;-77
2022/09/19 00:17:07;;;;;;;7.93;0.98;;;;;;;9.01;100.00;101161.25;2087360;28;40069;-77
2022/09/19 00:18:09;;;;;;;10.27;0.73;;;;;;;9.05;100.00;101167.44;2086761;28;34395;-77
2022/09/19 00:19:17;;;;;;;8.00;0.50;;;;;;;9.01;100.00;101161.25;2087333;28;34123;-78
2022/09/19 00:20:19;;;;;;;4.65;0.30;;;;;;;9.01;100.00;101165.69;2087528;28;41430;-78
2022/09/19 00:21:26;;;;;;;8.88;1.33;;;;;;;9.04;100.00;101168.31;2088659;28;20037;-77
2022/09/19 00:22:28;;;;;;;6.43;0.40;;;;;;;9.02;100.00;101163.00;2087014;28;36634;-76
2022/09/19 00:24:49;;;;;;;3.75;0.38;;;;;;;9.10;100.00;101161.13;2088880;28;20048;-78
2022/09/19 00:26:10;;;;;;;3.80;0.50;;;;;;;9.07;100.00;101161.16;2087301;28;34341;-77
2022/09/19 00:27:25;;;;;;;7.95;0.47;;;;;;;9.08;100.00;101157.59;2088143;28;32612;-75
2022/09/19 00:28:29;;;;;;;6.53;0.43;;;;;;;9.10;100.00;101161.13;2088205;28;20108;-76
2022/09/19 00:29:36;;;;;;;7.05;0.50;;;;;;;9.10;100.00;101170.94;2079941;28;20087;-76
2022/09/19 00:30:39;;;;;;;7.75;0.40;;;;;;;9.12;100.00;101175.34;2080119;28;20038;-76
2022/09/19 00:31:43;;;;;;;5.05;0.68;;;;;;;9.11;100.00;101173.56;2086292;28;39950;-76
2022/09/19 00:32:45;;;;;;;7.47;0.40;;;;;;;9.15;100.00;101172.63;2079547;28;22388;-76
2022/09/19 00:33:48;;;;;;;11.85;0.88;;;;;;;9.16;100.00;101176.19;2080077;28;24266;-76
2022/09/19 00:34:54;;;;;;;8.02;0.60;;;;;;;9.15;100.00;101175.31;2079445;28;27349;-76
2022/09/19 00:36:03;;;;;;;7.63;0.50;;;;;;;9.23;100.00;101182.34;2079767;28;20862;-76
2022/09/19 00:37:06;;;;;;;6.63;0.57;;;;;;;9.24;100.00;101179.63;2087179;28;29442;-75
2022/09/19 00:38:08;;;;;;;6.63;0.30;;;;;;;9.23;100.00;101176.97;2071513;28;20043;-78
2022/09/19 00:39:12;;;;;;;5.70;0.28;;;;;;;9.22;100.00;101180.56;2078708;28;34596;-78
2022/09/19 00:40:14;;;;;;;5.72;0.52;;;;;;;9.22;100.00;101175.19;2086882;28;27750;-77
2022/09/19 00:41:25;;;;;;;5.15;0.30;;;;;;;9.21;100.00;101174.34;2086831;28;20330;-77
2022/09/19 00:42:28;;;;;;;2.92;0.30;;;;;;;9.22;100.00;101175.19;2087984;28;20164;-77
2022/09/19 00:44:00;;;;;;;6.25;0.40;;;;;;;9.22;100.00;101177.88;2087513;28;28734;-76
2022/09/19 00:45:12;;;;;;;7.47;0.40;;;;;;;9.22;100.00;101169.88;2088339;28;20148;-77
2022/09/19 00:46:19;;;;;;;6.18;0.57;;;;;;;9.24;100.00;101184.97;2086931;28;20076;-77
2022/09/19 00:47:29;;;;;;;7.05;0.50;;;;;;;9.25;100.00;101177.84;2086478;28;20064;-77
2022/09/19 00:48:34;;;;;;;6.78;0.35;;;;;;;9.26;100.00;101182.25;2079213;28;27099;-77
2022/09/19 00:49:42;;;;;;;7.47;0.40;;;;;;;9.25;100.00;101181.38;2072607;28;20057;-77
2022/09/19 00:50:53;;;;;;;4.32;0.38;;;;;;;9.27;100.00;101173.34;2080299;28;28783;-77
2022/09/19 00:52:03;;;;;;;3.05;0.30;;;;;;;9.28;100.00;101175.13;2082103;28;27448;-78
2022/09/19 00:53:11;;;;;;;7.55;0.52;;;;;;;9.28;100.00;101180.47;2082548;28;20934;-77
2022/09/19 00:54:28;;;;;;;6.18;0.40;;;;;;;9.27;100.00;101174.22;2086687;28;23708;-80
2022/09/19 00:55:31;;;;;;;5.70;0.40;;;;;;;9.29;100.00;101182.22;2071250;28;31013;-81
2022/09/19 00:56:33;;;;;;;4.00;0.40;;;;;;;9.25;100.00;101175.16;2065209;28;26536;-78
2022/09/19 00:58:07;;;;;;;5.72;0.30;;;;;;;9.26;100.00;101172.50;2072289;28;31665;-80
2022/09/19 00:59:10;;;;;;;6.13;0.40;;;;;;;9.26;100.00;101172.50;2068192;28;20701;-80
2022/09/19 01:00:13;;;;;;;3.53;0.20;;;;;;;9.26;100.00;101175.16;2091595;28;32075;-81
2022/09/19 01:01:15;;;;;;;3.22;0.20;;;;;;;9.24;100.00;101166.28;2096613;28;20045;-80
2022/09/19 01:02:21;;;;;;;4.85;0.30;;;;;;;9.24;100.00;101168.03;2089189;28;20434;-81
2022/09/19 01:03:25;;;;;;;5.40;0.40;;;;;;;9.22;100.00;101167.19;2088621;28;22887;-81
2022/09/19 01:04:30;;;;;;;6.45;0.40;;;;;;;9.20;100.00;101169.00;2089884;28;20123;-81
2022/09/19 01:06:05;;;;;;;5.50;0.40;;;;;;;9.16;100.00;101166.38;2087080;28;21081;-79
2022/09/19 01:07:54;;;;;;;3.80;0.40;;;;;;;9.13;100.00;101171.78;2081103;28;20907;-80
2022/09/19 01:09:11;;;;;;;5.18;0.30;;;;;;;9.13;100.00;101178.88;2081409;28;20045;-80
2022/09/19 01:10:44;;;;;;;5.20;0.38;;;;;;;9.09;100.00;101186.03;2081113;28;29441;-80
2022/09/19 01:11:58;;;;;;;4.10;0.20;;;;;;;9.03;100.00;101196.81;2089216;28;25400;-79
2022/09/19 01:13:24;;;;;;;6.60;0.40;;;;;;;8.97;100.00;101189.78;2089373;28;28400;-77
2022/09/19 01:14:56;;;;;;;9.00;0.40;;;;;;;8.94;100.00;101187.13;2088891;28;20038;-78
2022/09/19 01:16:42;;;;;;;6.35;0.50;;;;;;;8.87;100.00;101197.91;2088938;28;29615;-81
2022/09/19 01:17:59;;;;;;;2.03;0.30;;;;;;;8.78;100.00;101202.44;2086318;28;20830;-79
2022/09/19 01:19:53;;;;;;;6.43;0.22;;;;;;;8.72;100.00;101202.53;2088552;28;20193;-79
2022/09/19 01:22:56;;;;;;;4.13;0.30;;;;;;;8.65;100.00;101208.84;2096101;28;20104;-79
2022/09/19 01:24:34;;;;;;;9.32;0.52;;;;;;;8.64;100.00;101209.72;2087136;28;26464;-78
2022/09/19 01:26:03;;;;;;;4.07;0.30;;;;;;;8.53;100.00;101214.28;2088263;28;28756;-80
2022/09/19 01:27:49;;;;;;;4.93;0.17;;;;;;;8.51;100.00;101216.09;2097087;28;23556;-78
2022/09/19 01:29:02;;;;;;;4.70;0.30;;;;;;;8.43;100.00;101205.47;2093444;28;20046;-79
2022/09/19 01:30:08;;;;;;;4.88;0.30;;;;;;;8.41;100.00;101212.59;2080562;28;20914;-78
2022/09/19 01:31:40;;;;;;;;;;;;;;;8.37;100.00;101214.41;2076497;28;20038;-78
2022/09/19 01:32:53;;;;;;;3.70;0.20;;;;;;;8.30;100.00;101204.69;2085049;28;25404;-80
2022/09/19 01:34:28;;;;;;;6.28;0.50;;;;;;;8.28;100.00;101213.63;2080884;28;20037;-81
2022/09/19 01:35:37;;;;;;;3.45;0.30;;;;;;;8.24;100.00;101215.44;2078535;28;20041;-78
2022/09/19 01:37:03;;;;;;;5.63;0.47;;;;;;;8.28;100.00;101208.28;2068713;28;20912;-81
2022/09/19 01:38:16;;;;;;;5.18;0.40;;;;;;;8.22;100.00;101206.56;2072270;28;20132;-80
2022/09/19 01:39:24;;;;;;;6.25;0.38;;;;;;;8.23;100.00;101213.66;2080520;28;20034;-81
2022/09/19 01:40:33;;;;;;;4.93;0.40;;;;;;;8.21;100.00;101208.31;2072665;28;20166;-80
2022/09/19 01:41:37;;;;;;;6.57;0.50;;;;;;;8.20;100.00;101206.56;2073722;28;20042;-80
2022/09/19 01:42:56;;;;;;;2.30;0.30;;;;;;;8.20;100.00;101219.00;2079347;28;20049;-80
2022/09/19 01:44:08;;;;;;;4.20;0.30;;;;;;;8.12;100.00;101216.41;2083194;28;20049;-77
2022/09/19 01:45:11;;;;;;;4.15;0.30;;;;;;;8.06;100.00;101220.91;2088568;28;20890;-79
2022/09/19 01:46:52;;;;;;;7.63;0.30;;;;;;;7.99;100.00;101209.41;2080240;28;20045;-79
2022/09/19 01:48:32;;;;;;;4.78;0.40;;;;;;;8.01;100.00;101216.50;2093002;28;20099;-79
2022/09/19 01:49:35;;;;;;;4.40;0.40;;;;;;;7.98;100.00;101208.50;2091914;28;20052;-79
2022/09/19 01:51:17;;;;;;;9.32;0.57;;;;;;;7.95;100.00;101210.31;2096752;28;20041;-80
2022/09/19 01:52:45;;;;;;;5.75;0.40;;;;;;;7.90;100.00;101209.50;2083146;28;20073;-80
2022/09/19 01:54:20;;;;;;;5.55;0.50;;;;;;;7.86;100.00;101216.63;2082487;28;20975;-80
2022/09/19 01:56:04;;;;;;;6.05;0.30;;;;;;;7.88;100.00;101208.59;2088610;28;20159;-81
2022/09/19 01:57:19;;;;;;;5.70;0.50;;;;;;;7.81;100.00;101215.78;2085531;28;20036;-80
2022/09/19 01:58:54;;;;;;;7.13;0.50;;;;;;;7.79;100.00;101222.91;2082202;28;20304;-81
2022/09/19 02:00:13;;;;;;;10.45;0.55;;;;;;;7.68;100.00;101216.72;2092322;28;20849;-80
2022/09/19 02:01:46;;;;;;;5.38;0.80;;;;;;;7.67;100.00;101217.66;2094720;28;20127;-80
2022/09/19 02:03:06;;;;;;;5.13;0.45;;;;;;;7.67;100.00;101231.84;2079867;28;20172;-79
2022/09/19 02:04:25;;;;;;;6.68;0.70;;;;;;;7.63;100.00;101222.97;2079724;28;20091;-81
2022/09/19 02:05:34;;;;;;;5.05;0.60;;;;;;;7.59;100.00;101217.66;2073231;28;20053;-81
2022/09/19 02:06:49;;;;;;;5.15;0.60;;;;;;;7.54;100.00;101227.50;2092824;28;20037;-80
2022/09/19 02:08:07;;;;;;;6.22;0.68;;;;;;;7.56;100.00;101229.25;2086731;28;20903;-81
2022/09/19 02:09:19;;;;;;;4.95;0.82;;;;;;;7.49;100.00;101223.97;2086038;28;20060;-81
2022/09/19 02:10:32;;;;;;;11.35;0.88;;;;;;;7.50;100.00;101228.38;2088292;28;20148;-81
2022/09/19 02:11:35;;;;;;;5.30;0.60;;;;;;;7.48;100.00;101231.06;2077544;28;20038;-81
2022/09/19 02:12:42;;;;;;;7.88;0.77;;;;;;;7.48;100.00;101231.06;2081030;28;32240;-80
2022/09/19 02:14:10;;;;;;;5.85;0.30;;;;;;;7.44;100.00;101231.97;2076690;28;20128;-81
2022/09/19 02:15:17;;;;;;;8.40;0.90;;;;;;;7.42;100.00;101239.09;2086715;28;20049;-81
2022/09/19 02:16:30;;;;;;;4.80;0.65;;;;;;;7.37;100.00;101224.91;2086320;28;20810;-80
2022/09/19 02:17:44;;;;;;;7.43;0.38;;;;;;;7.34;100.00;101225.81;2075898;28;20042;-81
2022/09/19 02:19:12;;;;;;;4.68;0.40;;;;;;;7.29;100.00;101229.41;2088641;28;20203;-82
2022/09/19 02:20:28;;;;;;;5.80;0.60;;;;;;;7.24;100.00;101224.97;2083303;28;20045;-81
2022/09/19 02:21:44;;;;;;;8.25;0.68;;;;;;;7.23;100.00;101231.19;2073585;28;20042;-81
2022/09/19 02:22:52;;;;;;;5.70;0.63;;;;;;;7.18;100.00;101225.00;2068163;28;20042;-81
2022/09/19 02:23:59;;;;;;;8.05;1.10;;;;;;;7.24;100.00;101227.63;2075064;28;25685;-80
2022/09/19 02:25:11;;;;;;;10.95;0.98;;;;;;;7.19;100.00;101224.09;2080624;28;20057;-79
2022/09/19 02:26:20;;;;;;;9.20;0.80;;;;;;;7.22;100.00;101218.75;2081680;28;20152;-81
2022/09/19 02:27:28;;;;;;;;;;;;;;;7.20;100.00;101225.00;2080415;28;20109;-81
2022/09/19 02:28:38;;;;;;;6.43;0.88;;;;;;;7.18;100.00;101219.69;2074534;28;19922;-81
2022/09/19 02:29:52;;;;;;;6.65;1.00;;;;;;;7.16;100.00;101234.78;2071557;28;20923;-80
2022/09/19 02:30:57;;;;;;;8.25;1.00;;;;;;;7.15;100.00;101229.47;2076231;28;20037;-81
2022/09/19 02:32:00;;;;;;;5.75;0.80;;;;;;;7.16;100.00;101229.47;2070235;28;20138;-79
2022/09/19 02:33:06;;;;;;;8.27;1.00;;;;;;;7.13;100.00;101221.47;2060607;28;20047;-80
2022/09/19 02:34:09;;;;;;;6.47;0.80;;;;;;;7.11;100.00;101225.94;2072819;28;20045;-80
2022/09/19 02:35:13;;;;;;;8.18;1.02;;;;;;;7.13;100.00;101231.25;2088116;28;20049;-81
2022/09/19 02:36:37;;;;;;;6.78;0.80;;;;;;;7.08;100.00;101217.94;2087745;28;20048;-80
2022/09/19 02:37:55;;;;;;;10.75;1.13;;;;;;;7.07;100.00;101221.50;2090827;28;23282;-80
2022/09/19 02:39:12;;;;;;;6.00;0.73;;;;;;;7.06;100.00;101225.94;2080090;28;21025;-80
2022/09/19 02:40:53;;;;;;;8.73;0.75;;;;;;;7.11;100.00;101228.59;2086762;28;20053;-81
2022/09/19 02:42:09;;;;;;;10.85;1.65;;;;;;;7.11;100.00;101228.59;2079274;28;20124;-80
2022/09/19 02:43:55;;;;;;;6.85;1.27;;;;;;;7.09;100.00;101225.06;2076867;28;20795;-80
2022/09/19 02:45:28;;;;;;;8.98;1.42;;;;;;;7.03;100.00;101219.72;2086440;28;21001;-79
2022/09/19 02:47:30;;;;;;;9.13;1.42;;;;;;;6.97;100.00;101230.41;2084916;28;20830;-81
2022/09/19 02:48:43;;;;;;;7.85;1.40;;;;;;;6.87;100.00;101235.78;2086844;28;20049;-81
2022/09/19 02:49:54;;;;;;;10.50;1.70;;;;;;;6.85;100.00;101236.66;2080992;28;24552;-80
2022/09/19 02:51:16;;;;;;;6.75;1.30;;;;;;;6.85;100.00;101242.84;2082654;28;20160;-80
2022/09/19 02:52:30;;;;;;;8.68;1.38;;;;;;;6.80;100.00;101236.69;2088473;28;20050;-80
2022/09/19 02:53:46;;;;;;;9.35;1.20;;;;;;;6.79;100.00;101240.22;2088269;28;20037;-81
2022/09/19 02:55:00;;;;;;;9.95;1.27;;;;;;;6.74;100.00;101236.69;2091508;28;20033;-81
2022/09/19 02:56:06;;;;;;;5.63;0.90;;;;;;;6.73;100.00;101248.22;2094035;28;20034;-80
2022/09/19 02:57:14;;;;;;;9.18;1.25;;;;;;;6.68;100.00;101239.38;2081183;28;20042;-80
2022/09/19 02:58:17;;;;;;;8.10;1.25;;;;;;;6.68;100.00;101244.69;2071741;28;20998;-80
2022/09/19 02:59:30;;;;;;;11.05;1.20;;;;;;;6.65;100.00;101247.34;2072985;28;20927;-80
2022/09/19 03:00:37;;;;;;;12.65;1.80;;;;;;;6.68;100.00;101244.69;2081503;28;20951;-81
2022/09/19 03:01:46;;;;;;;8.52;0.95;;;;;;;6.63;100.00;101241.16;2094752;28;20041;-81
2022/09/19 03:04:11;;;;;;;10.27;1.10;;;;;;;6.59;100.00;101242.94;2087009;28;20037;-80
2022/09/19 03:04:33;;;;;;;7.97;1.70;;;;;;;6.61;100.00;101235.81;2090831;28;20037;-81
2022/09/19 03:05:36;;;;;;;8.88;1.10;;;;;;;6.63;100.00;101241.16;2091781;28;20794;-80
2022/09/19 03:07:27;;;;;;;11.48;1.17;;;;;;;6.60;100.00;101242.03;2079976;28;20101;-80
2022/09/19 03:08:36;;;;;;;7.88;1.08;;;;;;;6.54;100.00;101241.16;2086848;28;20053;-80
2022/09/19 03:09:50;;;;;;;11.77;1.58;;;;;;;6.50;100.00;101240.28;2088012;28;20049;-80
2022/09/19 03:10:58;;;;;;;17.10;1.75;;;;;;;6.47;100.00;101242.94;2087372;28;20041;-81
2022/09/19 03:12:24;;;;;;;9.77;1.20;;;;;;;6.45;100.00;101247.38;2073651;28;20177;-81
2022/09/19 03:13:26;;;;;;;8.20;0.70;;;;;;;6.39;100.00;101242.97;2082444;28;23768;-81
2022/09/19 03:14:32;;;;;;;8.98;1.33;;;;;;;6.37;100.00;101249.16;2078635;28;20220;-81
2022/09/19 03:15:49;;;;;;;9.88;1.20;;;;;;;6.34;100.00;101243.84;2072428;28;20077;-81
2022/09/19 03:17:02;;;;;;;7.97;0.80;;;;;;;6.32;100.00;101246.50;2082809;28;20111;-80
2022/09/19 03:18:12;;;;;;;10.82;1.35;;;;;;;6.32;100.00;101249.16;2093722;28;20061;-81
2022/09/19 03:19:15;;;;;;;11.80;1.20;;;;;;;6.29;100.00;101250.03;2077754;28;20907;-81
2022/09/19 03:20:18;;;;;;;7.70;1.20;;;;;;;6.23;100.00;101251.84;2073184;28;25567;-81
2022/09/19 03:21:23;;;;;;;7.72;1.15;;;;;;;6.20;100.00;101247.38;2087778;28;20092;-80
2022/09/19 03:22:25;;;;;;;9.70;1.35;;;;;;;6.18;100.00;101249.16;2088722;28;20103;-81
2022/09/19 03:23:40;;;;;;;4.57;0.80;;;;;;;6.16;100.00;101256.25;2095643;28;20072;-81
2022/09/19 03:24:42;;;;;;;10.52;1.40;;;;;;;6.13;100.00;101250.94;2079661;28;20042;-81
2022/09/19 03:25:45;;;;;;;10.25;1.75;;;;;;;6.12;100.00;101254.50;2081018;28;20246;-81
2022/09/19 03:26:47;;;;;;;9.50;1.40;;;;;;;6.12;100.00;101257.16;2104719;28;20147;-80
2022/09/19 03:27:50;;;;;;;8.15;1.50;;;;;;;6.10;100.00;101257.16;2095755;28;35003;-81
2022/09/19 03:28:54;;;;;;;7.22;1.08;;;;;;;6.14;100.00;101257.13;2080257;28;20054;-81
2022/09/19 03:29:58;;;;;;;9.52;1.27;;;;;;;6.13;100.00;101255.38;2071428;28;20046;-81
2022/09/19 03:31:00;;;;;;;5.30;0.82;;;;;;;6.08;100.00;101261.56;2080377;28;20046;-80
2022/09/19 03:32:04;;;;;;;8.35;1.40;;;;;;;6.08;100.00;101258.00;2087760;28;20164;-81
2022/09/19 03:33:07;;;;;;;9.63;1.38;;;;;;;6.09;100.00;101262.44;2080071;28;20907;-81
2022/09/19 03:34:10;;;;;;;8.25;1.35;;;;;;;6.05;100.00;101261.56;2088130;28;20231;-80
2022/09/19 03:35:15;;;;;;;6.50;1.52;;;;;;;6.04;100.00;101262.44;2095103;28;20037;-79
2022/09/19 03:36:21;;;;;;;9.80;1.33;;;;;;;6.04;100.00;101254.47;2096502;28;20048;-79
2022/09/19 03:37:25;;;;;;;11.35;1.77;;;;;;;6.04;100.00;101265.09;2079091;28;20034;-79
2022/09/19 03:38:28;;;;;;;7.97;1.75;;;;;;;6.06;100.00;101271.28;2088814;28;20053;-79
2022/09/19 03:39:30;;;;;;;10.10;1.83;;;;;;;6.06;100.00;101267.75;2104036;28;20122;-80
2022/09/19 03:40:33;;;;;;;13.43;2.25;;;;;;;6.03;100.00;101263.34;2096087;28;20052;-79
2022/09/19 03:41:36;;;;;;;12.15;1.88;;;;;;;6.00;100.00;101265.97;2078695;28;20041;-79
2022/09/19 03:42:37;;;;;;;12.82;2.10;;;;;;;5.99;100.00;101265.97;2087725;28;21350;-81
2022/09/19 03:43:42;;;;;;;13.48;2.22;;;;;;;6.01;100.00;101266.84;2095963;28;20045;-81
2022/09/19 03:44:44;;;;;;;14.13;2.10;;;;;;;5.99;100.00;101266.84;2079764;28;20120;-80
2022/09/19 03:45:47;;;;;;;13.60;2.05;;;;;;;6.01;100.00;101272.19;2072170;28;20050;-81
2022/09/19 03:46:49;;;;;;;13.35;2.10;;;;;;;5.97;100.00;101268.63;2074233;28;20088;-81
2022/09/19 03:47:52;;;;;;;12.52;1.92;;;;;;;5.92;100.00;101270.34;2079526;28;20927;-82
2022/09/19 03:48:54;;;;;;;15.45;2.90;;;;;;;5.91;100.00;101265.94;2079629;28;20046;-81
2022/09/19 03:49:58;;;;;;;13.95;2.40;;;;;;;5.89;100.00;101273.03;2079647;28;20089;-81
2022/09/19 03:51:02;;;;;;;12.35;2.35;;;;;;;5.88;100.00;101272.13;2087688;28;20049;-80
2022/09/19 03:52:04;;;;;;;10.27;1.92;;;;;;;5.85;100.00;101265.91;2095719;28;20972;-81
2022/09/19 03:53:07;;;;;;;13.95;2.25;;;;;;;5.84;100.00;101270.34;2102762;28;20029;-81
2022/09/19 03:54:10;;;;;;;12.20;1.98;;;;;;;5.86;100.00;101270.34;2086448;28;20041;-81
2022/09/19 03:55:17;;;;;;;14.52;2.42;;;;;;;5.85;100.00;101272.13;2073002;28;20039;-80
2022/09/19 03:56:21;;;;;;;10.32;1.95;;;;;;;5.83;100.00;101267.69;2078729;28;20045;-81
2022/09/19 03:57:23;;;;;;;12.65;1.85;;;;;;;5.83;100.00;101267.69;2071650;28;20935;-80
2022/09/19 03:58:25;;;;;;;9.75;1.80;;;;;;;5.81;100.00;101267.69;2088170;28;20910;-80
2022/09/19 03:59:27;;;;;;;17.50;2.60;;;;;;;5.81;100.00;101280.97;2103175;28;20045;-80
2022/09/19 04:00:28;;;;;;;13.48;2.17;;;;;;;5.81;100.00;101266.81;2104504;28;20049;-81
2022/09/19 04:01:30;;;;;;;9.10;1.88;;;;;;;5.78;100.00;101270.34;2079010;28;20058;-80
2022/09/19 04:02:34;;;;;;;21.17;2.70;;;;;;;5.74;100.00;101269.47;2063588;28;20897;-80
2022/09/19 04:03:37;;;;;;;12.63;2.15;;;;;;;5.73;100.00;101270.34;2087540;28;20139;-81
2022/09/19 04:04:41;;;;;;;14.02;1.98;;;;;;;5.77;100.00;101273.00;2078916;28;20875;-81
2022/09/19 04:05:44;;;;;;;18.30;2.42;;;;;;;5.74;100.00;101274.78;2071442;28;20050;-81
2022/09/19 04:06:45;;;;;;;19.50;2.85;;;;;;;5.74;100.00;101271.22;2079385;28;20804;-81
2022/09/19 04:07:47;;;;;;;10.88;2.55;;;;;;;5.74;100.00;101269.47;2087457;28;20044;-81
2022/09/19 04:08:50;;;;;;;18.15;2.97;;;;;;;5.74;100.00;101273.88;2079142;28;20969;-81
2022/09/19 04:09:57;;;;;;;15.77;2.80;;;;;;;5.74;100.00;101272.13;2079295;28;20046;-81
2022/09/19 04:10:59;;;;;;;9.70;2.28;;;;;;;5.74;100.00;101274.78;2079637;28;20176;-81
2022/09/19 04:12:03;;;;;;;10.73;1.98;;;;;;;5.69;100.00;101270.34;2079054;28;20895;-81
2022/09/19 04:13:10;;;;;;;12.30;2.08;;;;;;;5.68;100.00;101274.75;2063502;28;20161;-81
2022/09/19 04:14:12;;;;;;;11.23;2.00;;;;;;;5.67;100.00;101275.66;2067329;28;20053;-81
2022/09/19 04:15:14;;;;;;;14.25;2.30;;;;;;;5.66;100.00;101281.81;2071209;28;20054;-81
2022/09/19 04:16:19;;;;;;;16.75;2.13;;;;;;;5.63;100.00;101281.81;2079810;28;20045;-81
2022/09/19 04:17:21;;;;;;;19.70;2.40;;;;;;;5.61;100.00;101285.34;2086502;28;20100;-82
2022/09/19 04:18:28;;;;;;;14.52;2.20;;;;;;;5.59;100.00;101289.78;2065240;28;20051;-81
2022/09/19 04:19:30;;;;;;;15.02;2.30;;;;;;;5.63;100.00;101292.44;2072031;28;20038;-81
2022/09/19 04:20:58;;;;;;;19.48;2.67;;;;;;;5.59;100.00;101292.44;2083133;28;20049;-81
2022/09/19 04:22:21;;;;;;;12.38;1.95;;;;;;;5.55;100.00;101294.19;2087170;28;20042;-81
2022/09/19 04:23:46;;;;;;;18.90;2.55;;;;;;;5.60;100.00;101291.53;2079306;28;20046;-81
2022/09/19 04:25:10;;;;;;;18.65;2.47;;;;;;;5.61;100.00;101299.50;2070602;28;20863;-82
2022/09/19 04:26:30;;;;;;;20.50;2.35;;;;;;;5.62;100.00;101297.78;2082125;28;20034;-81
2022/09/19 04:27:33;;;;;;;11.48;2.50;;;;;;;5.59;100.00;101298.63;2089594;28;20054;-81
2022/09/19 04:28:37;;;;;;;18.58;3.42;;;;;;;5.58;100.00;101293.31;2088843;28;20757;-81
2022/09/19 04:29:40;;;;;;;16.42;2.25;;;;;;;5.57;100.00;101297.75;2089290;28;20042;-80
2022/09/19 04:30:43;;;;;;;15.52;2.50;;;;;;;5.57;100.00;101305.72;2088994;28;20045;-81
2022/09/19 04:31:45;;;;;;;17.02;2.50;;;;;;;5.54;100.00;101308.34;2080419;28;20046;-81
2022/09/19 04:32:48;;;;;;;19.95;2.97;;;;;;;5.52;100.00;101299.50;2089399;28;20890;-82
2022/09/19 04:33:54;;;;;;;17.05;2.42;;;;;;;5.59;100.00;101311.03;2096877;28;20149;-81
2022/09/19 04:34:59;;;;;;;27.75;2.88;;;;;;;5.57;100.00;101300.41;2089316;28;20473;-81
2022/09/19 04:36:05;;;;;;;19.95;2.92;;;;;;;5.59;100.00;101306.59;2089470;28;20168;-81
2022/09/19 04:37:08;;;;;;;19.63;3.47;;;;;;;5.61;100.00;101304.81;2096827;28;20056;-82
2022/09/19 04:38:17;;;;;;;25.73;3.30;;;;;;;5.68;100.00;101311.06;2079907;28;20034;-82
2022/09/19 04:39:20;;;;;;;21.95;3.28;;;;;;;5.67;100.00;101310.19;2073632;28;20109;-82
2022/09/19 04:40:22;;;;;;;23.25;4.03;;;;;;;5.67;100.00;101309.28;2090102;28;21358;-83
2022/09/19 04:41:24;;;;;;;16.30;3.03;;;;;;;5.64;100.00;101304.84;2089069;28;20182;-82
2022/09/19 04:42:26;;;;;;;22.40;3.00;;;;;;;5.65;100.00;101316.34;2080256;28;20037;-82
2022/09/19 04:43:29;;;;;;;18.15;3.63;;;;;;;5.64;100.00;101304.84;2089244;28;20052;-80
2022/09/19 04:44:44;;;;;;;20.50;3.45;;;;;;;5.64;100.00;101306.63;2078313;28;20081;-83
2022/09/19 04:46:12;;;;;;;9.65;2.25;;;;;;;5.64;100.00;101314.59;2081875;28;20049;-83
2022/09/19 04:47:21;;;;;;;20.85;2.70;;;;;;;5.60;100.00;101311.03;2092429;28;20034;-82
2022/09/19 04:48:24;;;;;;;17.42;2.90;;;;;;;5.59;100.00;101319.00;2078827;28;20049;-83
2022/09/19 04:49:36;;;;;;;16.15;3.10;;;;;;;5.56;100.00;101317.19;2080925;28;20042;-83
2022/09/19 04:50:38;;;;;;;20.42;2.90;;;;;;;5.52;100.00;101316.28;2070769;28;20043;-83
2022/09/19 04:51:40;;;;;;;19.38;3.45;;;;;;;5.52;100.00;101318.06;2058366;28;20797;-84
2022/09/19 04:52:41;;;;;;;19.75;3.70;;;;;;;5.53;100.00;101323.41;2072493;28;21113;-83
2022/09/19 04:53:43;;;;;;;19.10;2.83;;;;;;;5.52;100.00;101305.69;2072833;28;20758;-83
2022/09/19 04:54:47;;;;;;;23.20;3.90;;;;;;;5.57;100.00;101312.81;2075112;28;21063;-83
2022/09/19 04:55:53;;;;;;;19.17;3.15;;;;;;;5.58;100.00;101322.53;2064289;28;20055;-83
2022/09/19 04:56:56;;;;;;;22.75;3.42;;;;;;;5.58;100.00;101320.78;2075058;28;20046;-83
2022/09/19 04:58:00;;;;;;;23.30;3.42;;;;;;;5.59;100.00;101317.22;2088647;28;20806;-82
2022/09/19 04:59:04;;;;;;;26.13;4.00;;;;;;;5.61;100.00;101317.22;2081378;28;20108;-83
2022/09/19 05:00:12;;;;;;;15.13;2.80;;;;;;;5.57;100.00;101324.31;2082290;28;20042;-83
2022/09/19 05:01:18;;;;;;;18.05;3.13;;;;;;;5.55;100.00;101326.94;2075345;28;20053;-83
2022/09/19 05:02:21;;;;;;;24.33;3.15;;;;;;;5.55;100.00;101326.94;2072529;28;20847;-83
2022/09/19 05:03:26;;;;;;;22.85;3.40;;;;;;;5.59;100.00;101327.84;2089397;28;20139;-83
2022/09/19 05:04:30;;;;;;;21.38;3.03;;;;;;;5.55;100.00;101329.59;2079989;28;20038;-83
2022/09/19 05:05:32;;;;;;;30.30;3.22;;;;;;;5.58;100.00;101326.09;2088742;28;20845;-84
2022/09/19 05:06:36;;;;;;;21.58;2.50;;;;;;;5.55;100.00;101331.38;2082203;28;20889;-84
2022/09/19 05:07:40;;;;;;;24.13;2.78;;;;;;;5.54;100.00;101332.25;2096903;28;20427;-83
2022/09/19 05:08:46;;;;;;;15.27;2.45;;;;;;;5.54;100.00;101335.81;2089619;28;20948;-83
2022/09/19 05:10:03;;;;;;;21.73;2.88;;;;;;;5.53;100.00;101339.34;2090270;28;20081;-83
2022/09/19 05:11:10;;;;;;;22.67;3.13;;;;;;;5.52;100.00;101332.22;2081609;28;21024;-84
2022/09/19 05:12:12;;;;;;;17.88;2.45;;;;;;;5.52;100.00;101332.22;2072459;28;20035;-84
2022/09/19 05:13:18;;;;;;;18.90;3.20;;;;;;;5.52;100.00;101336.66;2061945;28;20043;-84
2022/09/19 05:14:21;;;;;;;18.98;3.88;;;;;;;5.56;100.00;101338.44;2065259;28;20089;-84
2022/09/19 05:15:28;;;;;;;24.88;3.80;;;;;;;5.58;100.00;101338.47;2080564;28;20037;-84
2022/09/19 05:16:30;;;;;;;27.88;3.58;;;;;;;5.61;100.00;101341.13;2082064;28;20195;-84
2022/09/19 05:17:34;;;;;;;24.85;3.08;;;;;;;5.63;100.00;101334.94;2088992;28;20822;-84
2022/09/19 05:18:38;;;;;;;21.23;3.55;;;;;;;5.66;100.00;101334.94;2098243;28;20933;-85
2022/09/19 05:19:44;;;;;;;23.00;2.90;;;;;;;5.69;100.00;101328.78;2087774;28;20123;-85
2022/09/19 05:20:52;;;;;;;24.48;3.58;;;;;;;5.68;100.00;101333.19;2073177;28;20054;-84
2022/09/19 05:21:54;;;;;;;22.48;3.60;;;;;;;5.71;100.00;101335.88;2082649;28;20054;-83
2022/09/19 05:22:58;;;;;;;18.50;2.80;;;;;;;5.75;100.00;101331.44;2079909;28;20034;-84
2022/09/19 05:24:01;;;;;;;20.27;3.10;;;;;;;5.81;100.00;101335.88;2089570;28;20186;-84
2022/09/19 05:25:04;;;;;;;18.40;3.58;;;;;;;5.85;100.00;101338.56;2096015;28;20060;-85
2022/09/19 05:26:16;;;;;;;24.50;3.53;;;;;;;5.93;100.00;101344.78;2080724;28;20045;-85
2022/09/19 05:27:21;;;;;;;20.45;3.60;;;;;;;6.07;100.00;101347.50;2082700;28;20112;-84
2022/09/19 05:28:29;;;;;;;27.52;4.07;;;;;;;6.30;100.00;101341.34;2089991;28;20068;-85